createdAt,value
2022-11-15T00:00:57.471Z,2.44
2022-11-15T00:03:26.126Z,2.53
2022-11-15T00:05:53.250Z,2.51
2022-11-15T00:08:20.089Z,2.49
2022-11-15T00:10:57.393Z,2.52
2022-11-15T00:13:24.619Z,2.30
2022-11-15T00:15:51.459Z,2.44
2022-11-15T00:18:19.103Z,2.40
2022-11-15T00:20:46.040Z,2.13
2022-11-15T00:23:12.788Z,2.28
2022-11-15T00:25:39.895Z,2.24
2022-11-15T00:28:06.541Z,2.24
2022-11-15T00:30:33.665Z,2.00
2022-11-15T00:33:07.298Z,1.99
2022-11-15T00:35:35.397Z,2.16
2022-11-15T00:38:03.675Z,2.19
2022-11-15T00:40:30.787Z,2.21
2022-11-15T00:42:58.281Z,2.18
2022-11-15T00:45:25.685Z,2.08
2022-11-15T00:47:53.201Z,2.19
2022-11-15T00:50:20.216Z,2.08
2022-11-15T00:52:47.124Z,2.19
2022-11-15T00:55:17.922Z,2.20
2022-11-15T00:57:45.004Z,2.09
2022-11-15T01:00:12.635Z,2.19
2022-11-15T01:02:39.822Z,2.09
2022-11-15T01:05:07.323Z,2.05
2022-11-15T01:07:34.382Z,1.73
2022-11-15T01:10:01.491Z,1.98
2022-11-15T01:12:28.299Z,1.99
2022-11-15T01:14:54.909Z,1.99
2022-11-15T01:17:21.648Z,2.03
2022-11-15T01:19:48.592Z,1.90
2022-11-15T01:22:15.250Z,1.85
2022-11-15T01:24:42.132Z,1.83
2022-11-15T01:27:09.082Z,1.87
2022-11-15T01:29:35.929Z,1.85
2022-11-15T01:32:03.501Z,1.81
2022-11-15T01:34:30.240Z,1.96
2022-11-15T01:36:57.042Z,1.67
2022-11-15T01:39:23.878Z,1.82
2022-11-15T01:41:50.906Z,1.78
2022-11-15T01:44:35.835Z,2.04
2022-11-15T01:47:06.999Z,2.04
2022-11-15T01:49:36.353Z,1.84
2022-11-15T01:52:08.414Z,2.12
2022-11-15T01:54:35.357Z,2.04
2022-11-15T01:57:10.477Z,2.09
2022-11-15T01:59:41.848Z,2.22
2022-11-15T02:02:09.114Z,2.10
2022-11-15T02:04:45.032Z,1.97
2022-11-15T02:07:15.836Z,1.94
2022-11-15T02:09:43.880Z,1.97
2022-11-15T02:12:12.470Z,1.58
2022-11-15T02:14:46.090Z,1.96
2022-11-15T02:17:28.042Z,1.93
2022-11-15T02:20:20.650Z,2.05
2022-11-15T02:22:56.047Z,2.10
2022-11-15T02:25:32.705Z,2.00
2022-11-15T02:28:19.001Z,1.88
2022-11-15T02:30:58.586Z,1.99
2022-11-15T02:33:37.345Z,2.08
2022-11-15T02:36:13.153Z,2.17
2022-11-15T02:38:59.889Z,2.18
2022-11-15T02:41:39.702Z,2.22
2022-11-15T02:44:18.477Z,1.92
2022-11-15T02:47:16.098Z,1.95
2022-11-15T02:49:52.392Z,2.09
2022-11-15T02:52:22.481Z,2.05
2022-11-15T02:55:00.219Z,1.93
2022-11-15T02:57:52.345Z,1.97
2022-11-15T03:00:21.215Z,1.78
2022-11-15T03:03:29.685Z,1.76
2022-11-15T03:06:22.000Z,1.28
2022-11-15T03:09:12.397Z,1.69
2022-11-15T03:11:45.389Z,1.48
2022-11-15T03:14:36.713Z,1.67
2022-11-15T03:17:18.008Z,1.58
2022-11-15T03:19:48.230Z,1.61
2022-11-15T03:22:22.173Z,1.74
2022-11-15T03:24:55.122Z,1.44
2022-11-15T03:27:26.377Z,1.70
2022-11-15T03:30:01.683Z,1.59
2022-11-15T03:32:31.779Z,1.43
2022-11-15T03:35:07.517Z,1.61
2022-11-15T03:37:56.096Z,1.50
2022-11-15T03:40:30.335Z,1.43
2022-11-15T03:43:16.358Z,1.43
2022-11-15T03:45:51.630Z,1.60
2022-11-15T03:48:24.031Z,1.19
2022-11-15T03:50:51.254Z,1.40
2022-11-15T03:53:18.095Z,1.33
2022-11-15T03:55:45.058Z,1.76
2022-11-15T03:58:11.999Z,1.38
2022-11-15T04:00:38.677Z,1.71
2022-11-15T04:03:05.368Z,1.52
2022-11-15T04:05:32.079Z,1.70
2022-11-15T04:07:59.793Z,1.70
2022-11-15T04:10:26.850Z,1.71
2022-11-15T04:12:54.032Z,1.13
2022-11-15T04:15:25.027Z,1.80
2022-11-15T04:17:54.093Z,2.08
2022-11-15T04:20:44.042Z,2.22
2022-11-15T04:23:35.073Z,1.84
2022-11-15T04:26:06.666Z,1.97
2022-11-15T04:28:33.545Z,1.96
2022-11-15T04:31:00.520Z,1.92
2022-11-15T04:33:27.288Z,1.71
2022-11-15T04:36:12.543Z,1.71
2022-11-15T04:38:39.151Z,1.86
2022-11-15T04:41:06.069Z,1.73
2022-11-15T04:43:33.303Z,1.67
2022-11-15T04:46:00.185Z,1.70
2022-11-15T04:48:26.968Z,1.59
2022-11-15T04:50:53.596Z,1.50
2022-11-15T04:53:20.385Z,1.40
2022-11-15T04:55:47.733Z,1.46
2022-11-15T04:58:15.008Z,1.45
2022-11-15T05:00:42.044Z,1.45
2022-11-15T05:03:29.501Z,1.56
2022-11-15T05:05:56.564Z,1.52
2022-11-15T05:08:23.407Z,1.56
2022-11-15T05:10:50.049Z,1.36
2022-11-15T05:13:16.794Z,1.23
2022-11-15T05:15:43.898Z,1.34
2022-11-15T05:18:10.641Z,1.29
2022-11-15T05:20:37.414Z,1.24
2022-11-15T05:23:04.082Z,1.29
2022-11-15T05:25:30.953Z,1.10
2022-11-15T05:27:57.751Z,1.34
2022-11-15T05:30:24.429Z,1.38
2022-11-15T05:32:51.577Z,1.21
2022-11-15T05:35:30.730Z,1.29
2022-11-15T05:37:57.633Z,1.25
2022-11-15T05:40:25.140Z,1.30
2022-11-15T05:42:51.776Z,1.41
2022-11-15T05:45:23.895Z,1.45
2022-11-15T05:47:55.245Z,1.61
2022-11-15T05:50:22.418Z,1.64
2022-11-15T05:52:49.603Z,1.65
2022-11-15T05:55:16.728Z,1.67
2022-11-15T05:57:43.492Z,1.77
2022-11-15T06:00:10.636Z,1.84
2022-11-15T06:02:37.429Z,1.92
2022-11-15T06:05:04.465Z,1.98
2022-11-15T06:07:31.954Z,2.04
2022-11-15T06:09:58.694Z,1.97
2022-11-15T06:12:25.593Z,1.87
2022-11-15T06:14:52.366Z,1.95
2022-11-15T06:17:19.044Z,1.98
2022-11-15T06:19:45.879Z,2.23
2022-11-15T06:22:12.784Z,2.05
2022-11-15T06:24:39.549Z,2.19
2022-11-15T06:27:06.302Z,2.15
2022-11-15T06:29:33.287Z,2.41
2022-11-15T06:32:00.098Z,2.49
2022-11-15T06:34:26.864Z,2.48
2022-11-15T06:36:54.187Z,2.62
2022-11-15T06:39:21.482Z,2.63
2022-11-15T06:41:48.123Z,2.72
2022-11-15T06:44:14.876Z,2.56
2022-11-15T06:46:41.516Z,2.50
2022-11-15T06:49:09.782Z,2.51
2022-11-15T06:51:36.803Z,2.81
2022-11-15T06:54:03.716Z,2.65
2022-11-15T06:56:30.453Z,2.80
2022-11-15T06:58:57.131Z,2.72
2022-11-15T07:01:23.911Z,3.00
2022-11-15T07:03:50.613Z,2.99
2022-11-15T07:06:17.692Z,3.09
2022-11-15T07:08:44.319Z,3.12
2022-11-15T07:11:11.003Z,3.06
2022-11-15T07:13:38.404Z,3.37
2022-11-15T07:16:07.584Z,3.40
2022-11-15T07:18:39.464Z,3.59
2022-11-15T07:21:08.873Z,3.64
2022-11-15T07:23:38.661Z,3.65
2022-11-15T07:26:06.016Z,3.68
2022-11-15T07:28:32.907Z,3.82
2022-11-15T07:31:02.790Z,3.65
2022-11-15T07:33:29.908Z,3.81
2022-11-15T07:36:02.655Z,3.73
2022-11-15T07:38:30.320Z,3.84
2022-11-15T07:41:03.187Z,3.87
2022-11-15T07:43:31.048Z,3.87
2022-11-15T07:45:59.514Z,4.05
2022-11-15T07:48:35.616Z,3.99
2022-11-15T07:51:14.292Z,4.13
2022-11-15T07:53:41.863Z,3.92
2022-11-15T07:56:09.266Z,3.75
2022-11-15T07:58:36.295Z,3.67
2022-11-15T08:01:07.834Z,3.70
2022-11-15T08:03:35.242Z,3.90
2022-11-15T08:06:02.219Z,3.84
2022-11-15T08:08:28.994Z,3.91
2022-11-15T08:10:55.972Z,3.92
2022-11-15T08:13:22.872Z,3.68
2022-11-15T08:15:52.245Z,3.93
2022-11-15T08:18:23.093Z,4.08
2022-11-15T08:20:49.801Z,4.05
2022-11-15T08:23:16.452Z,4.18
2022-11-15T08:25:43.213Z,4.46
2022-11-15T08:28:11.763Z,4.48
2022-11-15T08:30:43.155Z,4.60
2022-11-15T08:33:14.946Z,4.63
2022-11-15T08:35:43.341Z,4.65
2022-11-15T08:38:10.506Z,4.55
2022-11-15T08:40:37.911Z,4.19
2022-11-15T08:43:04.896Z,3.99
2022-11-15T08:45:32.614Z,4.12
2022-11-15T08:48:01.422Z,4.44
2022-11-15T08:50:28.070Z,4.45
2022-11-15T08:52:54.899Z,4.65
2022-11-15T08:55:24.525Z,4.32
2022-11-15T08:57:51.861Z,4.34
2022-11-15T09:00:20.985Z,4.42
2022-11-15T09:02:47.695Z,4.47
2022-11-15T09:05:14.478Z,4.63
2022-11-15T09:07:41.212Z,4.65
2022-11-15T09:10:08.282Z,4.59
2022-11-15T09:12:34.996Z,4.62
2022-11-15T09:15:01.849Z,4.70
2022-11-15T09:17:28.554Z,4.69
2022-11-15T09:19:55.280Z,4.67
2022-11-15T09:22:22.135Z,4.60
2022-11-15T09:24:48.820Z,4.56
2022-11-15T09:29:59.335Z,4.58
2022-11-15T09:32:36.292Z,4.62
2022-11-15T09:35:05.823Z,4.53
2022-11-15T09:37:33.383Z,4.79
2022-11-15T09:40:00.000Z,4.80
2022-11-15T09:42:45.369Z,4.81
2022-11-15T09:45:21.560Z,4.78
2022-11-15T09:48:32.967Z,4.67
2022-11-15T09:50:59.997Z,4.45
2022-11-15T09:53:57.527Z,4.84
2022-11-15T09:56:22.638Z,5.01
2022-11-15T09:59:17.694Z,4.98
2022-11-15T10:02:07.230Z,4.95
2022-11-15T10:04:33.947Z,4.95
2022-11-15T10:07:14.592Z,5.32
2022-11-15T10:09:48.783Z,5.39
2022-11-15T10:12:16.838Z,5.39
2022-11-15T10:14:44.328Z,5.51
2022-11-15T10:17:26.701Z,5.73
2022-11-15T10:20:17.038Z,5.92
2022-11-15T10:22:52.818Z,6.09
2022-11-15T10:25:29.035Z,5.42
2022-11-15T10:28:03.456Z,5.98
2022-11-15T10:30:41.684Z,6.10
2022-11-15T10:33:22.218Z,5.80
2022-11-15T10:35:48.980Z,5.92
2022-11-15T10:38:15.829Z,6.15
2022-11-15T10:40:44.685Z,6.13
2022-11-15T10:43:11.491Z,6.08
2022-11-15T10:45:39.619Z,6.15
2022-11-15T10:48:15.481Z,6.32
2022-11-15T10:50:44.204Z,6.68
2022-11-15T10:53:32.732Z,6.97
2022-11-15T10:56:05.289Z,6.77
2022-11-15T10:58:51.009Z,7.21
2022-11-15T11:01:24.253Z,7.30
2022-11-15T11:04:09.330Z,7.34
2022-11-15T11:06:57.779Z,7.40
2022-11-15T11:09:36.540Z,7.51
2022-11-15T11:12:05.457Z,7.24
2022-11-15T11:14:35.255Z,7.30
2022-11-15T11:17:18.980Z,7.30
2022-11-15T11:20:01.639Z,7.51
2022-11-15T11:22:56.212Z,7.53
2022-11-15T11:25:31.476Z,7.29
2022-11-15T11:28:14.509Z,7.40
2022-11-15T11:30:55.832Z,7.38
2022-11-15T11:33:44.638Z,7.38
2022-11-15T11:36:17.942Z,7.34
2022-11-15T11:39:18.333Z,7.45
2022-11-15T11:41:51.048Z,7.70
2022-11-15T11:44:46.464Z,7.91
2022-11-15T11:47:22.109Z,7.85
2022-11-15T11:50:01.071Z,7.70
2022-11-15T11:52:34.366Z,7.79
2022-11-15T11:55:06.742Z,7.77
2022-11-15T11:57:50.549Z,7.66
2022-11-15T12:00:21.582Z,7.88
2022-11-15T12:02:57.344Z,7.57
2022-11-15T12:05:33.771Z,7.70
2022-11-15T12:08:21.524Z,8.19
2022-11-15T12:11:09.587Z,8.03
2022-11-15T12:13:38.199Z,8.12
2022-11-15T12:16:17.396Z,8.42
2022-11-15T12:18:54.256Z,8.47
2022-11-15T12:21:40.598Z,8.76
2022-11-15T12:24:15.647Z,8.41
2022-11-15T12:26:52.108Z,8.17
2022-11-15T12:29:29.177Z,8.48
2022-11-15T12:31:59.369Z,8.40
2022-11-15T12:34:29.083Z,8.31
2022-11-15T12:36:57.189Z,8.33
2022-11-15T12:40:04.543Z,8.35
2022-11-15T12:42:31.219Z,8.52
2022-11-15T12:45:00.284Z,8.55
2022-11-15T12:47:28.033Z,8.30
2022-11-15T12:49:54.803Z,8.38
2022-11-15T12:52:21.675Z,8.25
2022-11-15T12:54:57.208Z,8.13
2022-11-15T12:57:33.302Z,8.36
2022-11-15T13:00:03.873Z,8.00
2022-11-15T13:02:46.253Z,8.02
2022-11-15T13:05:19.390Z,8.12
2022-11-15T13:07:46.049Z,8.18
2022-11-15T13:10:30.793Z,8.25
2022-11-15T13:13:05.710Z,8.22
2022-11-15T13:15:57.265Z,8.30
2022-11-15T13:18:41.247Z,8.59
2022-11-15T13:21:42.289Z,8.68
2022-11-15T13:24:16.814Z,8.83
2022-11-15T13:26:44.045Z,8.72
2022-11-15T13:29:17.561Z,8.67
2022-11-15T13:31:45.912Z,8.59
2022-11-15T13:37:21.884Z,8.60
2022-11-15T13:39:50.439Z,8.82
2022-11-15T13:42:20.631Z,8.75
2022-11-15T13:45:05.751Z,8.57
2022-11-15T13:47:33.398Z,8.56
2022-11-15T13:50:09.647Z,8.57
2022-11-15T13:52:41.705Z,8.43
2022-11-15T13:55:22.562Z,8.38
2022-11-15T13:58:07.139Z,7.97
2022-11-15T14:00:45.919Z,8.13
2022-11-15T14:03:31.243Z,7.97
2022-11-15T14:06:13.358Z,7.76
2022-11-15T14:09:12.456Z,7.89
2022-11-15T14:11:54.010Z,7.34
2022-11-15T14:14:23.351Z,7.26
2022-11-15T14:16:53.408Z,7.47
2022-11-15T14:19:25.919Z,7.51
2022-11-15T14:22:14.529Z,7.27
2022-11-15T14:24:44.017Z,7.22
2022-11-15T14:27:17.902Z,7.14
2022-11-15T14:29:44.542Z,7.12
2022-11-15T14:32:23.576Z,6.96
2022-11-15T14:34:55.880Z,6.78
2022-11-15T14:37:23.919Z,6.69
2022-11-15T14:39:51.135Z,6.54
2022-11-15T14:42:19.057Z,6.48
2022-11-15T14:44:46.399Z,6.52
2022-11-15T14:47:13.898Z,6.36
2022-11-15T14:49:40.998Z,6.39
2022-11-15T14:52:36.897Z,6.33
2022-11-15T14:55:12.967Z,6.23
2022-11-15T14:57:39.723Z,6.23
2022-11-15T15:00:07.184Z,6.26
2022-11-15T15:02:33.889Z,6.09
2022-11-15T15:05:03.380Z,5.92
2022-11-15T15:07:30.470Z,5.96
2022-11-15T15:10:17.760Z,5.84
2022-11-15T15:12:44.808Z,5.64
2022-11-15T15:15:25.216Z,5.64
2022-11-15T15:17:51.982Z,5.54
2022-11-15T15:20:18.907Z,5.65
2022-11-15T15:22:46.162Z,5.46
2022-11-15T15:25:22.949Z,5.54
2022-11-15T15:27:50.547Z,5.76
2022-11-15T15:30:17.664Z,5.88
2022-11-15T15:32:45.410Z,5.99
2022-11-15T15:35:16.614Z,5.98
2022-11-15T15:37:45.354Z,6.16
2022-11-15T15:40:20.934Z,6.12
2022-11-15T15:42:48.200Z,6.26
2022-11-15T15:45:16.367Z,6.28
2022-11-15T15:47:44.124Z,6.26
2022-11-15T15:50:33.564Z,6.06
2022-11-15T15:53:04.398Z,6.00
2022-11-15T15:55:31.443Z,5.77
2022-11-15T15:57:58.620Z,5.78
2022-11-15T16:00:27.533Z,5.77
2022-11-15T16:02:54.847Z,5.71
2022-11-15T16:05:22.330Z,5.63
2022-11-15T16:07:49.581Z,5.40
2022-11-15T16:10:28.187Z,5.13
2022-11-15T16:12:56.678Z,5.36
2022-11-15T16:15:25.720Z,5.34
2022-11-15T16:17:58.413Z,5.40
2022-11-15T16:20:32.342Z,5.32
2022-11-15T16:23:04.326Z,5.40
2022-11-15T16:25:56.946Z,5.42
2022-11-15T16:28:32.609Z,5.26
2022-11-15T16:31:05.797Z,5.01
2022-11-15T16:33:33.990Z,5.11
2022-11-15T16:36:01.477Z,5.31
2022-11-15T16:38:28.160Z,5.02
2022-11-15T16:40:54.916Z,5.19
2022-11-15T16:43:21.792Z,5.33
2022-11-15T16:45:50.816Z,5.28
2022-11-15T16:48:26.227Z,5.38
2022-11-15T16:50:57.688Z,5.34
2022-11-15T16:53:25.164Z,5.44
2022-11-15T16:55:52.140Z,5.45
2022-11-15T16:58:18.881Z,5.45
2022-11-15T17:00:46.211Z,5.24
2022-11-15T17:03:13.037Z,5.47
2022-11-15T17:05:39.832Z,5.37
2022-11-15T17:08:07.182Z,5.50
2022-11-15T17:10:34.564Z,5.43
2022-11-15T17:13:01.559Z,5.53
2022-11-15T17:15:28.214Z,5.48
2022-11-15T17:17:55.573Z,5.40
2022-11-15T17:20:24.140Z,5.30
2022-11-15T17:22:51.002Z,5.09
2022-11-15T17:25:17.755Z,5.25
2022-11-15T17:27:44.540Z,5.12
2022-11-15T17:30:15.523Z,5.14
2022-11-15T17:32:43.175Z,5.22
2022-11-15T17:35:15.332Z,5.26
2022-11-15T17:37:43.022Z,4.89
2022-11-15T17:40:10.638Z,4.94
2022-11-15T17:42:37.306Z,5.11
2022-11-15T17:45:09.526Z,5.13
2022-11-15T17:47:36.934Z,5.14
2022-11-15T17:50:03.842Z,4.92
2022-11-15T17:52:30.821Z,4.98
2022-11-15T17:54:57.503Z,4.94
2022-11-15T17:57:24.336Z,4.88
2022-11-15T17:59:51.015Z,4.90
2022-11-15T18:02:17.717Z,4.87
2022-11-15T18:04:45.347Z,4.86
2022-11-15T18:07:14.449Z,4.98
2022-11-15T18:09:43.864Z,4.99
2022-11-15T18:12:11.783Z,4.81
2022-11-15T18:14:38.524Z,4.75
2022-11-15T18:17:05.218Z,4.90
2022-11-15T18:19:32.558Z,4.84
2022-11-15T18:22:01.007Z,4.70
2022-11-15T18:24:33.537Z,5.01
2022-11-15T18:27:01.389Z,4.82
2022-11-15T18:29:28.411Z,4.70
2022-11-15T18:31:56.047Z,4.80
2022-11-15T18:34:25.500Z,4.90
2022-11-15T18:36:53.038Z,4.77
2022-11-15T18:39:20.496Z,4.83
2022-11-15T18:41:47.940Z,4.85
2022-11-15T18:44:15.451Z,4.77
2022-11-15T18:46:42.773Z,4.68
2022-11-15T18:49:10.810Z,4.44
2022-11-15T18:51:41.683Z,4.40
2022-11-15T18:54:11.152Z,4.41
2022-11-15T18:56:38.656Z,4.32
2022-11-15T18:59:06.352Z,4.06
2022-11-15T19:01:36.626Z,4.34
2022-11-15T19:04:08.096Z,4.33
2022-11-15T19:06:38.553Z,4.26
2022-11-15T19:09:06.090Z,4.40
2022-11-15T19:11:35.971Z,4.44
2022-11-15T19:14:12.820Z,4.48
2022-11-15T19:16:50.766Z,4.40
2022-11-15T19:19:19.828Z,4.40
2022-11-15T19:21:47.333Z,4.50
2022-11-15T19:24:14.641Z,4.42
2022-11-15T19:26:42.242Z,4.35
2022-11-15T19:29:14.173Z,4.35
2022-11-15T19:31:41.650Z,4.43
2022-11-15T19:34:09.007Z,4.42
2022-11-15T19:36:41.337Z,4.20
2022-11-15T19:39:10.248Z,4.38
2022-11-15T19:41:38.869Z,4.30
2022-11-15T19:44:06.697Z,4.13
2022-11-15T19:46:33.902Z,4.27
2022-11-15T19:49:00.706Z,4.25
2022-11-15T19:51:30.310Z,3.98
2022-11-15T19:54:06.639Z,3.97
2022-11-15T19:56:34.890Z,3.91
2022-11-15T19:59:02.548Z,3.86
2022-11-15T20:01:31.600Z,3.73
2022-11-15T20:03:59.757Z,3.62
2022-11-15T20:06:29.765Z,3.60
2022-11-15T20:08:58.401Z,3.37
2022-11-15T20:11:25.936Z,3.23
2022-11-15T20:13:57.191Z,3.01
2022-11-15T20:16:23.970Z,3.16
2022-11-15T20:18:51.573Z,3.19
2022-11-15T20:21:18.834Z,3.09
2022-11-15T20:23:47.266Z,3.08
2022-11-15T20:26:14.951Z,2.97
2022-11-15T20:28:41.690Z,3.02
2022-11-15T20:31:10.576Z,3.09
2022-11-15T20:33:37.219Z,3.13
2022-11-15T20:36:06.288Z,3.19
2022-11-15T20:38:34.696Z,3.22
2022-11-15T20:41:02.129Z,3.00
2022-11-15T20:43:31.285Z,3.31
2022-11-15T20:45:58.376Z,3.15
2022-11-15T20:48:25.221Z,3.65
2022-11-15T20:51:02.538Z,3.70
2022-11-15T20:53:31.595Z,3.54
2022-11-15T20:56:05.546Z,3.16
2022-11-15T20:58:32.972Z,3.90
2022-11-15T21:01:00.013Z,3.50
2022-11-15T21:03:26.800Z,4.03
2022-11-15T21:05:54.326Z,4.03
2022-11-15T21:08:21.126Z,3.94
2022-11-15T21:11:09.728Z,4.11
2022-11-15T21:13:37.793Z,4.18
2022-11-15T21:16:05.652Z,4.17
2022-11-15T21:18:33.356Z,4.19
2022-11-15T21:21:05.509Z,4.13
2022-11-15T21:23:32.717Z,4.14
2022-11-15T21:25:59.924Z,4.07
2022-11-15T21:28:26.657Z,4.16
2022-11-15T21:30:57.994Z,4.10
2022-11-15T21:33:27.423Z,3.89
2022-11-15T21:35:57.613Z,3.99
2022-11-15T21:38:24.952Z,4.09
2022-11-15T21:40:53.206Z,4.18
2022-11-15T21:43:20.954Z,4.18
2022-11-15T21:46:01.204Z,3.99
2022-11-15T21:48:29.619Z,4.07
2022-11-15T21:51:01.662Z,4.17
2022-11-15T21:53:29.308Z,4.14
2022-11-15T21:55:56.047Z,3.93
2022-11-15T21:58:22.942Z,3.98
2022-11-15T22:01:08.712Z,3.98
2022-11-15T22:03:36.047Z,3.99
2022-11-15T22:06:02.879Z,3.93
2022-11-15T22:08:31.393Z,4.05
2022-11-15T22:10:58.531Z,3.75
2022-11-15T22:13:26.054Z,3.94
2022-11-15T22:15:54.198Z,3.91
2022-11-15T22:18:32.068Z,3.73
2022-11-15T22:21:01.627Z,3.70
2022-11-15T22:23:30.073Z,3.41
2022-11-15T22:25:57.072Z,3.82
2022-11-15T22:28:24.466Z,3.82
2022-11-15T22:30:53.235Z,3.98
2022-11-15T22:33:22.995Z,3.85
2022-11-15T22:35:50.093Z,3.62
2022-11-15T22:38:17.263Z,4.03
2022-11-15T22:40:44.330Z,3.88
2022-11-15T22:43:13.161Z,4.02
2022-11-15T22:45:49.557Z,4.08
2022-11-15T22:48:16.700Z,4.32
2022-11-15T22:50:44.048Z,4.25
2022-11-15T22:53:10.929Z,4.17
2022-11-15T22:55:44.512Z,4.20
2022-11-15T22:58:11.252Z,4.04
2022-11-15T23:00:37.942Z,4.11
2022-11-15T23:03:05.321Z,4.04
2022-11-15T23:05:32.173Z,3.98
2022-11-15T23:07:58.981Z,3.88
2022-11-15T23:10:44.053Z,3.90
2022-11-15T23:13:18.962Z,3.64
2022-11-15T23:16:07.633Z,3.73
2022-11-15T23:18:36.051Z,3.46
2022-11-15T23:21:10.336Z,3.43
2022-11-15T23:23:37.716Z,3.50
2022-11-15T23:26:04.872Z,3.23
2022-11-15T23:28:36.040Z,3.24
2022-11-15T23:31:26.348Z,3.23
2022-11-15T23:33:58.878Z,3.30
2022-11-15T23:36:27.357Z,3.34
2022-11-15T23:38:54.050Z,3.22
2022-11-15T23:41:21.734Z,3.46
2022-11-15T23:43:48.387Z,3.38
2022-11-15T23:46:15.099Z,3.54
2022-11-15T23:48:41.960Z,3.52
2022-11-15T23:51:09.179Z,3.37
2022-11-15T23:53:36.340Z,3.52
2022-11-15T23:56:17.093Z,3.37
2022-11-15T23:58:44.648Z,3.28
